sensor_id;sensor_type;location;lat;lon;timestamp;P1;durP1;ratioP1;P2;durP2;ratioP2
5157;SDS011;2598;52.364;9.772;2023-04-24T00:02:20;3.70;;;1.20;;
5157;SDS011;2598;52.364;9.772;2023-04-24T00:04:46;3.73;;;1.13;;
5157;SDS011;2598;52.364;9.772;2023-04-24T00:07:13;3.93;;;1.20;;
5157;SDS011;2598;52.364;9.772;2023-04-24T00:09:41;3.57;;;1.10;;
5157;SDS011;2598;52.364;9.772;2023-04-24T00:12:07;3.50;;;0.90;;
5157;SDS011;2598;52.364;9.772;2023-04-24T00:14:33;3.50;;;0.97;;
5157;SDS011;2598;52.364;9.772;2023-04-24T00:17:00;3.80;;;1.00;;
5157;SDS011;2598;52.364;9.772;2023-04-24T00:19:27;3.83;;;0.90;;
5157;SDS011;2598;52.364;9.772;2023-04-24T00:21:53;3.50;;;0.90;;
5157;SDS011;2598;52.364;9.772;2023-04-24T00:24:20;4.17;;;1.17;;
5157;SDS011;2598;52.364;9.772;2023-04-24T00:26:46;4.37;;;0.93;;
5157;SDS011;2598;52.364;9.772;2023-04-24T00:29:12;4.20;;;1.00;;
5157;SDS011;2598;52.364;9.772;2023-04-24T00:31:38;6.93;;;1.30;;
5157;SDS011;2598;52.364;9.772;2023-04-24T00:34:04;3.40;;;0.80;;
5157;SDS011;2598;52.364;9.772;2023-04-24T00:36:30;3.80;;;1.00;;
5157;SDS011;2598;52.364;9.772;2023-04-24T00:38:57;3.43;;;0.90;;
5157;SDS011;2598;52.364;9.772;2023-04-24T00:41:24;4.50;;;1.23;;
5157;SDS011;2598;52.364;9.772;2023-04-24T00:43:51;5.10;;;1.10;;
5157;SDS011;2598;52.364;9.772;2023-04-24T00:46:17;3.50;;;0.87;;
5157;SDS011;2598;52.364;9.772;2023-04-24T00:48:43;6.50;;;1.07;;
5157;SDS011;2598;52.364;9.772;2023-04-24T00:51:09;3.93;;;0.87;;
5157;SDS011;2598;52.364;9.772;2023-04-24T00:53:35;4.70;;;1.00;;
5157;SDS011;2598;52.364;9.772;2023-04-24T00:56:01;4.50;;;1.30;;
5157;SDS011;2598;52.364;9.772;2023-04-24T00:58:28;3.87;;;1.10;;
5157;SDS011;2598;52.364;9.772;2023-04-24T01:00:55;4.30;;;0.93;;
5157;SDS011;2598;52.364;9.772;2023-04-24T01:03:22;4.37;;;0.93;;
5157;SDS011;2598;52.364;9.772;2023-04-24T01:05:49;3.60;;;1.00;;
5157;SDS011;2598;52.364;9.772;2023-04-24T01:08:16;3.90;;;1.00;;
5157;SDS011;2598;52.364;9.772;2023-04-24T01:10:42;4.40;;;1.10;;
5157;SDS011;2598;52.364;9.772;2023-04-24T01:13:10;4.20;;;1.10;;
5157;SDS011;2598;52.364;9.772;2023-04-24T01:15:36;3.90;;;0.90;;
5157;SDS011;2598;52.364;9.772;2023-04-24T01:18:02;4.60;;;1.03;;
5157;SDS011;2598;52.364;9.772;2023-04-24T01:20:28;3.40;;;0.93;;
5157;SDS011;2598;52.364;9.772;2023-04-24T01:22:56;3.37;;;0.83;;
5157;SDS011;2598;52.364;9.772;2023-04-24T01:25:23;4.70;;;1.23;;
5157;SDS011;2598;52.364;9.772;2023-04-24T01:27:49;3.80;;;1.00;;
5157;SDS011;2598;52.364;9.772;2023-04-24T01:30:16;3.60;;;1.03;;
5157;SDS011;2598;52.364;9.772;2023-04-24T01:32:42;3.90;;;1.10;;
5157;SDS011;2598;52.364;9.772;2023-04-24T01:35:11;5.67;;;0.87;;
5157;SDS011;2598;52.364;9.772;2023-04-24T01:37:37;3.73;;;0.90;;
5157;SDS011;2598;52.364;9.772;2023-04-24T01:40:04;3.70;;;1.00;;
5157;SDS011;2598;52.364;9.772;2023-04-24T01:42:31;3.97;;;0.93;;
5157;SDS011;2598;52.364;9.772;2023-04-24T01:44:57;3.80;;;1.00;;
5157;SDS011;2598;52.364;9.772;2023-04-24T01:47:23;3.97;;;0.80;;
5157;SDS011;2598;52.364;9.772;2023-04-24T01:49:50;6.00;;;1.00;;
5157;SDS011;2598;52.364;9.772;2023-04-24T01:52:16;5.00;;;1.00;;
5157;SDS011;2598;52.364;9.772;2023-04-24T01:54:43;3.50;;;0.90;;
5157;SDS011;2598;52.364;9.772;2023-04-24T01:57:09;7.00;;;1.00;;
5157;SDS011;2598;52.364;9.772;2023-04-24T01:59:35;4.80;;;1.13;;
5157;SDS011;2598;52.364;9.772;2023-04-24T02:02:02;3.90;;;0.87;;
5157;SDS011;2598;52.364;9.772;2023-04-24T02:04:28;3.97;;;0.97;;
5157;SDS011;2598;52.364;9.772;2023-04-24T02:06:54;5.40;;;0.93;;
5157;SDS011;2598;52.364;9.772;2023-04-24T02:09:20;3.73;;;0.90;;
5157;SDS011;2598;52.364;9.772;2023-04-24T02:11:46;4.07;;;0.90;;
5157;SDS011;2598;52.364;9.772;2023-04-24T02:14:12;3.70;;;0.90;;
5157;SDS011;2598;52.364;9.772;2023-04-24T02:16:38;3.87;;;1.00;;
5157;SDS011;2598;52.364;9.772;2023-04-24T02:19:04;3.40;;;0.70;;
5157;SDS011;2598;52.364;9.772;2023-04-24T02:21:30;3.63;;;0.83;;
5157;SDS011;2598;52.364;9.772;2023-04-24T02:23:56;3.90;;;1.27;;
5157;SDS011;2598;52.364;9.772;2023-04-24T02:26:22;3.53;;;0.97;;
5157;SDS011;2598;52.364;9.772;2023-04-24T02:28:48;4.13;;;0.83;;
5157;SDS011;2598;52.364;9.772;2023-04-24T02:31:14;3.50;;;0.90;;
5157;SDS011;2598;52.364;9.772;2023-04-24T02:33:40;3.30;;;0.80;;
5157;SDS011;2598;52.364;9.772;2023-04-24T02:36:06;3.60;;;0.90;;
5157;SDS011;2598;52.364;9.772;2023-04-24T02:38:32;3.53;;;1.00;;
5157;SDS011;2598;52.364;9.772;2023-04-24T02:40:58;3.50;;;0.90;;
5157;SDS011;2598;52.364;9.772;2023-04-24T02:43:25;4.43;;;0.93;;
5157;SDS011;2598;52.364;9.772;2023-04-24T02:45:51;3.60;;;0.80;;
5157;SDS011;2598;52.364;9.772;2023-04-24T02:48:17;4.10;;;1.00;;
5157;SDS011;2598;52.364;9.772;2023-04-24T02:50:43;3.80;;;1.00;;
5157;SDS011;2598;52.364;9.772;2023-04-24T02:53:09;9.90;;;0.90;;
5157;SDS011;2598;52.364;9.772;2023-04-24T02:55:35;3.87;;;1.00;;
5157;SDS011;2598;52.364;9.772;2023-04-24T02:58:01;3.50;;;0.80;;
5157;SDS011;2598;52.364;9.772;2023-04-24T03:00:27;4.13;;;1.17;;
5157;SDS011;2598;52.364;9.772;2023-04-24T03:02:53;4.50;;;1.30;;
5157;SDS011;2598;52.364;9.772;2023-04-24T03:05:19;4.87;;;1.47;;
5157;SDS011;2598;52.364;9.772;2023-04-24T03:07:45;4.73;;;1.00;;
5157;SDS011;2598;52.364;9.772;2023-04-24T03:10:11;3.90;;;1.10;;
5157;SDS011;2598;52.364;9.772;2023-04-24T03:12:37;3.80;;;1.10;;
5157;SDS011;2598;52.364;9.772;2023-04-24T03:15:03;4.90;;;1.00;;
5157;SDS011;2598;52.364;9.772;2023-04-24T03:17:29;6.40;;;0.90;;
5157;SDS011;2598;52.364;9.772;2023-04-24T03:19:55;12.43;;;1.20;;
5157;SDS011;2598;52.364;9.772;2023-04-24T03:22:21;5.30;;;1.03;;
5157;SDS011;2598;52.364;9.772;2023-04-24T03:24:47;3.50;;;0.90;;
5157;SDS011;2598;52.364;9.772;2023-04-24T03:27:13;3.40;;;0.80;;
5157;SDS011;2598;52.364;9.772;2023-04-24T03:29:39;3.50;;;0.80;;
5157;SDS011;2598;52.364;9.772;2023-04-24T03:32:05;3.50;;;0.90;;
5157;SDS011;2598;52.364;9.772;2023-04-24T03:34:31;3.40;;;0.83;;
5157;SDS011;2598;52.364;9.772;2023-04-24T03:36:57;3.40;;;1.00;;
5157;SDS011;2598;52.364;9.772;2023-04-24T03:39:23;3.40;;;0.80;;
5157;SDS011;2598;52.364;9.772;2023-04-24T03:41:50;4.23;;;1.00;;
5157;SDS011;2598;52.364;9.772;2023-04-24T03:44:16;3.33;;;0.80;;
5157;SDS011;2598;52.364;9.772;2023-04-24T03:46:42;3.73;;;1.00;;
5157;SDS011;2598;52.364;9.772;2023-04-24T03:49:07;3.57;;;0.93;;
5157;SDS011;2598;52.364;9.772;2023-04-24T03:51:33;3.50;;;1.00;;
5157;SDS011;2598;52.364;9.772;2023-04-24T03:54:00;6.10;;;0.90;;
5157;SDS011;2598;52.364;9.772;2023-04-24T03:56:26;4.03;;;1.03;;
5157;SDS011;2598;52.364;9.772;2023-04-24T03:58:52;5.00;;;0.90;;
5157;SDS011;2598;52.364;9.772;2023-04-24T04:01:17;3.90;;;1.00;;
5157;SDS011;2598;52.364;9.772;2023-04-24T04:03:45;3.70;;;0.80;;
5157;SDS011;2598;52.364;9.772;2023-04-24T04:06:11;3.50;;;1.00;;
5157;SDS011;2598;52.364;9.772;2023-04-24T04:08:38;3.70;;;0.93;;
5157;SDS011;2598;52.364;9.772;2023-04-24T04:11:03;3.57;;;0.97;;
5157;SDS011;2598;52.364;9.772;2023-04-24T04:13:29;3.90;;;0.90;;
5157;SDS011;2598;52.364;9.772;2023-04-24T04:15:55;3.90;;;1.13;;
5157;SDS011;2598;52.364;9.772;2023-04-24T04:18:21;5.83;;;1.00;;
5157;SDS011;2598;52.364;9.772;2023-04-24T04:20:47;3.80;;;1.10;;
5157;SDS011;2598;52.364;9.772;2023-04-24T04:23:13;3.60;;;1.00;;
5157;SDS011;2598;52.364;9.772;2023-04-24T04:25:39;3.53;;;0.90;;
5157;SDS011;2598;52.364;9.772;2023-04-24T04:28:05;4.20;;;1.17;;
5157;SDS011;2598;52.364;9.772;2023-04-24T04:30:31;4.40;;;0.97;;
5157;SDS011;2598;52.364;9.772;2023-04-24T04:32:57;3.47;;;0.87;;
5157;SDS011;2598;52.364;9.772;2023-04-24T04:35:23;4.27;;;1.07;;
5157;SDS011;2598;52.364;9.772;2023-04-24T04:37:49;4.30;;;1.30;;
5157;SDS011;2598;52.364;9.772;2023-04-24T04:40:16;4.43;;;1.13;;
5157;SDS011;2598;52.364;9.772;2023-04-24T04:42:42;5.97;;;1.07;;
5157;SDS011;2598;52.364;9.772;2023-04-24T04:45:11;3.93;;;1.07;;
5157;SDS011;2598;52.364;9.772;2023-04-24T04:47:37;3.70;;;1.10;;
5157;SDS011;2598;52.364;9.772;2023-04-24T04:50:04;6.80;;;1.10;;
5157;SDS011;2598;52.364;9.772;2023-04-24T04:52:30;4.43;;;1.00;;
5157;SDS011;2598;52.364;9.772;2023-04-24T04:54:56;6.23;;;0.90;;
5157;SDS011;2598;52.364;9.772;2023-04-24T04:57:22;5.53;;;1.10;;
5157;SDS011;2598;52.364;9.772;2023-04-24T04:59:48;3.37;;;0.90;;
5157;SDS011;2598;52.364;9.772;2023-04-24T05:02:14;24.63;;;11.10;;
5157;SDS011;2598;52.364;9.772;2023-04-24T05:04:40;68.27;;;30.33;;
5157;SDS011;2598;52.364;9.772;2023-04-24T05:07:06;59.80;;;26.30;;
5157;SDS011;2598;52.364;9.772;2023-04-24T05:09:32;27.20;;;13.60;;
5157;SDS011;2598;52.364;9.772;2023-04-24T05:11:58;18.50;;;9.00;;
5157;SDS011;2598;52.364;9.772;2023-04-24T05:14:24;13.43;;;6.50;;
5157;SDS011;2598;52.364;9.772;2023-04-24T05:16:50;13.20;;;5.53;;
5157;SDS011;2598;52.364;9.772;2023-04-24T05:19:16;9.13;;;3.30;;
5157;SDS011;2598;52.364;9.772;2023-04-24T05:21:41;11.47;;;3.47;;
5157;SDS011;2598;52.364;9.772;2023-04-24T05:24:07;12.50;;;4.53;;
5157;SDS011;2598;52.364;9.772;2023-04-24T05:26:33;9.07;;;3.47;;
5157;SDS011;2598;52.364;9.772;2023-04-24T05:29:00;9.70;;;2.93;;
5157;SDS011;2598;52.364;9.772;2023-04-24T05:31:27;5.87;;;2.30;;
5157;SDS011;2598;52.364;9.772;2023-04-24T05:33:53;6.63;;;2.13;;
5157;SDS011;2598;52.364;9.772;2023-04-24T05:36:19;5.10;;;1.43;;
5157;SDS011;2598;52.364;9.772;2023-04-24T05:38:45;5.40;;;1.27;;
5157;SDS011;2598;52.364;9.772;2023-04-24T05:41:11;4.43;;;1.07;;
5157;SDS011;2598;52.364;9.772;2023-04-24T05:43:37;4.57;;;0.93;;
5157;SDS011;2598;52.364;9.772;2023-04-24T05:46:03;5.07;;;1.30;;
5157;SDS011;2598;52.364;9.772;2023-04-24T05:48:29;4.03;;;1.30;;
5157;SDS011;2598;52.364;9.772;2023-04-24T05:50:55;3.90;;;1.20;;
5157;SDS011;2598;52.364;9.772;2023-04-24T05:53:21;4.03;;;0.97;;
5157;SDS011;2598;52.364;9.772;2023-04-24T05:55:47;4.07;;;1.33;;
5157;SDS011;2598;52.364;9.772;2023-04-24T05:58:13;5.93;;;1.30;;
5157;SDS011;2598;52.364;9.772;2023-04-24T06:00:40;3.70;;;1.00;;
5157;SDS011;2598;52.364;9.772;2023-04-24T06:03:07;4.50;;;1.40;;
5157;SDS011;2598;52.364;9.772;2023-04-24T06:05:33;5.17;;;1.90;;
5157;SDS011;2598;52.364;9.772;2023-04-24T06:07:59;4.53;;;1.40;;
5157;SDS011;2598;52.364;9.772;2023-04-24T06:10:25;5.30;;;1.20;;
5157;SDS011;2598;52.364;9.772;2023-04-24T06:12:52;6.90;;;1.40;;
5157;SDS011;2598;52.364;9.772;2023-04-24T06:15:21;5.20;;;1.30;;
5157;SDS011;2598;52.364;9.772;2023-04-24T06:17:47;5.87;;;1.10;;
5157;SDS011;2598;52.364;9.772;2023-04-24T06:20:13;3.80;;;0.97;;
5157;SDS011;2598;52.364;9.772;2023-04-24T06:22:39;3.63;;;1.20;;
5157;SDS011;2598;52.364;9.772;2023-04-24T06:25:05;3.90;;;1.10;;
5157;SDS011;2598;52.364;9.772;2023-04-24T06:27:32;4.63;;;1.00;;
5157;SDS011;2598;52.364;9.772;2023-04-24T06:29:58;4.67;;;1.20;;
5157;SDS011;2598;52.364;9.772;2023-04-24T06:32:23;4.57;;;1.37;;
5157;SDS011;2598;52.364;9.772;2023-04-24T06:34:53;4.20;;;1.30;;
5157;SDS011;2598;52.364;9.772;2023-04-24T06:37:22;3.93;;;1.20;;
5157;SDS011;2598;52.364;9.772;2023-04-24T06:39:49;4.57;;;1.60;;
5157;SDS011;2598;52.364;9.772;2023-04-24T06:42:15;5.57;;;1.53;;
5157;SDS011;2598;52.364;9.772;2023-04-24T06:44:41;10.50;;;1.40;;
5157;SDS011;2598;52.364;9.772;2023-04-24T06:47:07;3.53;;;1.20;;
5157;SDS011;2598;52.364;9.772;2023-04-24T06:49:34;7.40;;;1.80;;
5157;SDS011;2598;52.364;9.772;2023-04-24T06:52:00;4.07;;;1.50;;
5157;SDS011;2598;52.364;9.772;2023-04-24T06:54:26;4.00;;;1.30;;
5157;SDS011;2598;52.364;9.772;2023-04-24T06:56:52;4.13;;;1.60;;
5157;SDS011;2598;52.364;9.772;2023-04-24T06:59:18;4.70;;;2.07;;
5157;SDS011;2598;52.364;9.772;2023-04-24T07:01:44;8.87;;;2.60;;
5157;SDS011;2598;52.364;9.772;2023-04-24T07:04:10;6.57;;;2.53;;
5157;SDS011;2598;52.364;9.772;2023-04-24T07:06:37;5.00;;;2.50;;
5157;SDS011;2598;52.364;9.772;2023-04-24T07:09:04;6.60;;;3.10;;
5157;SDS011;2598;52.364;9.772;2023-04-24T07:11:29;5.50;;;2.90;;
5157;SDS011;2598;52.364;9.772;2023-04-24T07:13:56;7.30;;;2.87;;
5157;SDS011;2598;52.364;9.772;2023-04-24T07:16:22;6.00;;;2.70;;
5157;SDS011;2598;52.364;9.772;2023-04-24T07:18:48;7.30;;;3.13;;
5157;SDS011;2598;52.364;9.772;2023-04-24T07:21:14;7.27;;;3.03;;
5157;SDS011;2598;52.364;9.772;2023-04-24T07:23:39;6.00;;;2.60;;
5157;SDS011;2598;52.364;9.772;2023-04-24T07:26:06;10.13;;;3.40;;
5157;SDS011;2598;52.364;9.772;2023-04-24T07:28:32;5.87;;;3.00;;
5157;SDS011;2598;52.364;9.772;2023-04-24T07:30:58;6.80;;;3.37;;
5157;SDS011;2598;52.364;9.772;2023-04-24T07:33:24;6.80;;;3.30;;
5157;SDS011;2598;52.364;9.772;2023-04-24T07:35:50;6.23;;;3.63;;
5157;SDS011;2598;52.364;9.772;2023-04-24T07:38:17;6.03;;;3.40;;
5157;SDS011;2598;52.364;9.772;2023-04-24T07:40:46;7.67;;;3.37;;
5157;SDS011;2598;52.364;9.772;2023-04-24T07:43:12;7.27;;;3.87;;
5157;SDS011;2598;52.364;9.772;2023-04-24T07:45:38;9.00;;;3.87;;
5157;SDS011;2598;52.364;9.772;2023-04-24T07:48:04;9.03;;;3.43;;
5157;SDS011;2598;52.364;9.772;2023-04-24T07:50:30;7.80;;;3.83;;
5157;SDS011;2598;52.364;9.772;2023-04-24T07:52:56;8.23;;;4.03;;
5157;SDS011;2598;52.364;9.772;2023-04-24T07:55:22;7.00;;;3.50;;
5157;SDS011;2598;52.364;9.772;2023-04-24T07:57:48;6.43;;;3.63;;
5157;SDS011;2598;52.364;9.772;2023-04-24T08:00:15;6.33;;;3.47;;
5157;SDS011;2598;52.364;9.772;2023-04-24T08:02:41;7.43;;;4.30;;
5157;SDS011;2598;52.364;9.772;2023-04-24T08:05:07;6.83;;;3.90;;
5157;SDS011;2598;52.364;9.772;2023-04-24T08:07:33;7.97;;;4.03;;
5157;SDS011;2598;52.364;9.772;2023-04-24T08:10:00;8.87;;;4.33;;
5157;SDS011;2598;52.364;9.772;2023-04-24T08:12:27;10.37;;;4.73;;
5157;SDS011;2598;52.364;9.772;2023-04-24T08:14:53;11.13;;;5.30;;
5157;SDS011;2598;52.364;9.772;2023-04-24T08:17:19;7.80;;;4.70;;
5157;SDS011;2598;52.364;9.772;2023-04-24T08:19:45;6.33;;;4.00;;
5157;SDS011;2598;52.364;9.772;2023-04-24T08:22:13;9.50;;;5.23;;
5157;SDS011;2598;52.364;9.772;2023-04-24T08:24:39;8.10;;;4.70;;
5157;SDS011;2598;52.364;9.772;2023-04-24T08:27:05;7.83;;;4.40;;
5157;SDS011;2598;52.364;9.772;2023-04-24T08:29:31;9.30;;;5.43;;
5157;SDS011;2598;52.364;9.772;2023-04-24T08:31:57;8.90;;;5.03;;
5157;SDS011;2598;52.364;9.772;2023-04-24T08:34:23;7.20;;;4.30;;
5157;SDS011;2598;52.364;9.772;2023-04-24T08:36:49;9.27;;;5.07;;
5157;SDS011;2598;52.364;9.772;2023-04-24T08:39:15;11.10;;;5.20;;
5157;SDS011;2598;52.364;9.772;2023-04-24T08:41:43;8.83;;;4.53;;
5157;SDS011;2598;52.364;9.772;2023-04-24T08:44:10;8.60;;;5.00;;
5157;SDS011;2598;52.364;9.772;2023-04-24T08:46:36;8.10;;;4.73;;
5157;SDS011;2598;52.364;9.772;2023-04-24T08:49:03;7.30;;;4.53;;
5157;SDS011;2598;52.364;9.772;2023-04-24T08:51:29;7.80;;;4.80;;
5157;SDS011;2598;52.364;9.772;2023-04-24T08:53:55;7.40;;;4.77;;
5157;SDS011;2598;52.364;9.772;2023-04-24T08:56:22;8.70;;;4.50;;
5157;SDS011;2598;52.364;9.772;2023-04-24T08:58:48;6.80;;;4.00;;
5157;SDS011;2598;52.364;9.772;2023-04-24T09:01:15;7.67;;;4.80;;
5157;SDS011;2598;52.364;9.772;2023-04-24T09:03:41;5.90;;;3.20;;
5157;SDS011;2598;52.364;9.772;2023-04-24T09:06:07;8.90;;;4.40;;
5157;SDS011;2598;52.364;9.772;2023-04-24T09:08:33;6.43;;;3.70;;
5157;SDS011;2598;52.364;9.772;2023-04-24T09:10:59;6.00;;;3.10;;
5157;SDS011;2598;52.364;9.772;2023-04-24T09:13:27;6.17;;;3.03;;
5157;SDS011;2598;52.364;9.772;2023-04-24T09:15:54;5.23;;;2.70;;
5157;SDS011;2598;52.364;9.772;2023-04-24T09:18:22;5.20;;;2.30;;
5157;SDS011;2598;52.364;9.772;2023-04-24T09:20:58;4.40;;;2.07;;
5157;SDS011;2598;52.364;9.772;2023-04-24T09:23:26;4.50;;;2.10;;
5157;SDS011;2598;52.364;9.772;2023-04-24T09:25:53;4.23;;;2.20;;
5157;SDS011;2598;52.364;9.772;2023-04-24T09:28:22;6.20;;;2.50;;
5157;SDS011;2598;52.364;9.772;2023-04-24T09:31:01;5.40;;;2.03;;
5157;SDS011;2598;52.364;9.772;2023-04-24T09:33:27;7.10;;;2.40;;
5157;SDS011;2598;52.364;9.772;2023-04-24T09:35:53;4.60;;;2.20;;
5157;SDS011;2598;52.364;9.772;2023-04-24T09:38:19;4.90;;;2.50;;
5157;SDS011;2598;52.364;9.772;2023-04-24T09:40:46;5.43;;;2.50;;
5157;SDS011;2598;52.364;9.772;2023-04-24T09:43:12;6.47;;;2.60;;
5157;SDS011;2598;52.364;9.772;2023-04-24T09:45:39;4.80;;;2.60;;
5157;SDS011;2598;52.364;9.772;2023-04-24T09:48:05;4.90;;;2.77;;
5157;SDS011;2598;52.364;9.772;2023-04-24T09:50:34;6.03;;;2.80;;
5157;SDS011;2598;52.364;9.772;2023-04-24T09:53:01;6.70;;;3.13;;
5157;SDS011;2598;52.364;9.772;2023-04-24T09:55:27;5.20;;;2.43;;
5157;SDS011;2598;52.364;9.772;2023-04-24T09:57:57;6.13;;;2.77;;
5157;SDS011;2598;52.364;9.772;2023-04-24T10:00:31;5.97;;;3.10;;
5157;SDS011;2598;52.364;9.772;2023-04-24T10:03:01;5.70;;;2.60;;
5157;SDS011;2598;52.364;9.772;2023-04-24T10:05:29;5.67;;;2.63;;
5157;SDS011;2598;52.364;9.772;2023-04-24T10:07:56;5.53;;;2.47;;
5157;SDS011;2598;52.364;9.772;2023-04-24T10:10:22;5.20;;;2.40;;
5157;SDS011;2598;52.364;9.772;2023-04-24T10:12:48;4.80;;;2.57;;
5157;SDS011;2598;52.364;9.772;2023-04-24T10:15:14;5.00;;;2.30;;
5157;SDS011;2598;52.364;9.772;2023-04-24T10:17:45;7.70;;;2.50;;
5157;SDS011;2598;52.364;9.772;2023-04-24T10:20:16;8.63;;;3.00;;
5157;SDS011;2598;52.364;9.772;2023-04-24T10:22:42;5.30;;;2.73;;
5157;SDS011;2598;52.364;9.772;2023-04-24T10:25:11;7.43;;;2.70;;
5157;SDS011;2598;52.364;9.772;2023-04-24T10:27:37;5.50;;;2.70;;
5157;SDS011;2598;52.364;9.772;2023-04-24T10:30:03;6.80;;;2.70;;
5157;SDS011;2598;52.364;9.772;2023-04-24T10:32:30;5.00;;;2.67;;
5157;SDS011;2598;52.364;9.772;2023-04-24T10:34:56;6.00;;;2.57;;
5157;SDS011;2598;52.364;9.772;2023-04-24T10:37:22;6.00;;;3.10;;
5157;SDS011;2598;52.364;9.772;2023-04-24T10:39:49;6.10;;;2.88;;
5157;SDS011;2598;52.364;9.772;2023-04-24T10:42:16;6.90;;;2.40;;
5157;SDS011;2598;52.364;9.772;2023-04-24T10:44:42;5.90;;;3.17;;
5157;SDS011;2598;52.364;9.772;2023-04-24T10:47:14;5.60;;;2.60;;
5157;SDS011;2598;52.364;9.772;2023-04-24T10:49:40;4.50;;;2.27;;
5157;SDS011;2598;52.364;9.772;2023-04-24T10:52:06;6.30;;;2.30;;
5157;SDS011;2598;52.364;9.772;2023-04-24T10:54:42;5.83;;;2.00;;
5157;SDS011;2598;52.364;9.772;2023-04-24T10:59:48;4.20;;;2.10;;
5157;SDS011;2598;52.364;9.772;2023-04-24T11:02:14;8.27;;;1.87;;
5157;SDS011;2598;52.364;9.772;2023-04-24T11:04:40;5.60;;;2.30;;
5157;SDS011;2598;52.364;9.772;2023-04-24T11:07:10;5.50;;;2.30;;
5157;SDS011;2598;52.364;9.772;2023-04-24T11:09:36;5.30;;;2.70;;
5157;SDS011;2598;52.364;9.772;2023-04-24T11:12:03;5.13;;;2.00;;
5157;SDS011;2598;52.364;9.772;2023-04-24T11:14:31;5.30;;;1.83;;
5157;SDS011;2598;52.364;9.772;2023-04-24T11:17:33;4.40;;;1.90;;
5157;SDS011;2598;52.364;9.772;2023-04-24T11:20:17;4.90;;;1.97;;
5157;SDS011;2598;52.364;9.772;2023-04-24T11:22:43;4.50;;;1.70;;
5157;SDS011;2598;52.364;9.772;2023-04-24T11:25:09;5.93;;;1.90;;
5157;SDS011;2598;52.364;9.772;2023-04-24T11:27:40;5.43;;;2.00;;
5157;SDS011;2598;52.364;9.772;2023-04-24T11:30:07;5.53;;;2.13;;
5157;SDS011;2598;52.364;9.772;2023-04-24T11:37:26;8.90;;;4.00;;
5157;SDS011;2598;52.364;9.772;2023-04-24T11:39:53;6.50;;;2.73;;
5157;SDS011;2598;52.364;9.772;2023-04-24T11:42:20;5.80;;;2.00;;
5157;SDS011;2598;52.364;9.772;2023-04-24T11:44:47;3.90;;;1.40;;
5157;SDS011;2598;52.364;9.772;2023-04-24T11:47:13;4.00;;;1.10;;
5157;SDS011;2598;52.364;9.772;2023-04-24T11:49:39;3.70;;;1.00;;
5157;SDS011;2598;52.364;9.772;2023-04-24T11:52:05;3.80;;;1.00;;
5157;SDS011;2598;52.364;9.772;2023-04-24T11:54:31;3.80;;;1.20;;
5157;SDS011;2598;52.364;9.772;2023-04-24T11:56:57;4.10;;;1.17;;
5157;SDS011;2598;52.364;9.772;2023-04-24T11:59:23;4.10;;;1.13;;
5157;SDS011;2598;52.364;9.772;2023-04-24T12:01:49;3.30;;;0.97;;
5157;SDS011;2598;52.364;9.772;2023-04-24T12:04:16;3.33;;;1.00;;
5157;SDS011;2598;52.364;9.772;2023-04-24T12:07:01;3.90;;;1.00;;
5157;SDS011;2598;52.364;9.772;2023-04-24T12:09:27;3.80;;;1.27;;
5157;SDS011;2598;52.364;9.772;2023-04-24T12:11:53;3.80;;;1.10;;
5157;SDS011;2598;52.364;9.772;2023-04-24T12:14:21;4.00;;;1.00;;
5157;SDS011;2598;52.364;9.772;2023-04-24T12:16:48;5.00;;;0.90;;
5157;SDS011;2598;52.364;9.772;2023-04-24T12:19:18;3.53;;;1.10;;
5157;SDS011;2598;52.364;9.772;2023-04-24T12:21:45;4.30;;;1.20;;
5157;SDS011;2598;52.364;9.772;2023-04-24T12:24:23;3.77;;;0.73;;
5157;SDS011;2598;52.364;9.772;2023-04-24T12:26:49;3.80;;;0.80;;
5157;SDS011;2598;52.364;9.772;2023-04-24T12:29:21;3.60;;;0.87;;
5157;SDS011;2598;52.364;9.772;2023-04-24T12:31:47;4.90;;;1.00;;
5157;SDS011;2598;52.364;9.772;2023-04-24T12:34:20;3.30;;;0.80;;
5157;SDS011;2598;52.364;9.772;2023-04-24T12:36:46;3.30;;;0.80;;
5157;SDS011;2598;52.364;9.772;2023-04-24T12:39:16;3.27;;;0.83;;
5157;SDS011;2598;52.364;9.772;2023-04-24T12:41:55;3.30;;;0.80;;
5157;SDS011;2598;52.364;9.772;2023-04-24T12:44:28;3.37;;;0.77;;
5157;SDS011;2598;52.364;9.772;2023-04-24T12:46:55;3.57;;;0.87;;
5157;SDS011;2598;52.364;9.772;2023-04-24T12:49:21;3.50;;;0.80;;
5157;SDS011;2598;52.364;9.772;2023-04-24T12:51:47;3.50;;;0.90;;
5157;SDS011;2598;52.364;9.772;2023-04-24T12:54:13;4.77;;;0.97;;
5157;SDS011;2598;52.364;9.772;2023-04-24T12:56:38;3.50;;;0.80;;
5157;SDS011;2598;52.364;9.772;2023-04-24T12:59:04;3.93;;;1.13;;
5157;SDS011;2598;52.364;9.772;2023-04-24T13:01:30;7.93;;;1.10;;
5157;SDS011;2598;52.364;9.772;2023-04-24T13:03:56;3.57;;;1.20;;
5157;SDS011;2598;52.364;9.772;2023-04-24T13:06:22;3.87;;;1.30;;
5157;SDS011;2598;52.364;9.772;2023-04-24T13:08:48;7.80;;;1.20;;
5157;SDS011;2598;52.364;9.772;2023-04-24T13:11:14;3.93;;;1.00;;
5157;SDS011;2598;52.364;9.772;2023-04-24T13:13:40;3.60;;;1.00;;
5157;SDS011;2598;52.364;9.772;2023-04-24T13:16:06;4.10;;;1.15;;
5157;SDS011;2598;52.364;9.772;2023-04-24T13:18:32;3.90;;;1.40;;
5157;SDS011;2598;52.364;9.772;2023-04-24T13:20:58;3.70;;;1.10;;
5157;SDS011;2598;52.364;9.772;2023-04-24T13:23:24;3.70;;;1.23;;
5157;SDS011;2598;52.364;9.772;2023-04-24T13:25:50;3.53;;;0.97;;
5157;SDS011;2598;52.364;9.772;2023-04-24T13:28:15;4.40;;;1.30;;
5157;SDS011;2598;52.364;9.772;2023-04-24T13:30:41;4.10;;;1.30;;
5157;SDS011;2598;52.364;9.772;2023-04-24T13:33:07;4.10;;;1.70;;
5157;SDS011;2598;52.364;9.772;2023-04-24T13:35:33;4.40;;;1.03;;
5157;SDS011;2598;52.364;9.772;2023-04-24T13:37:59;3.60;;;1.00;;
5157;SDS011;2598;52.364;9.772;2023-04-24T13:40:26;3.80;;;1.00;;
5157;SDS011;2598;52.364;9.772;2023-04-24T13:42:52;3.40;;;0.90;;
5157;SDS011;2598;52.364;9.772;2023-04-24T13:45:18;3.53;;;0.93;;
5157;SDS011;2598;52.364;9.772;2023-04-24T13:47:45;3.87;;;1.23;;
5157;SDS011;2598;52.364;9.772;2023-04-24T13:50:11;3.80;;;0.90;;
5157;SDS011;2598;52.364;9.772;2023-04-24T13:52:37;3.30;;;0.83;;
5157;SDS011;2598;52.364;9.772;2023-04-24T13:55:03;3.40;;;0.70;;
5157;SDS011;2598;52.364;9.772;2023-04-24T13:57:29;3.27;;;0.70;;
5157;SDS011;2598;52.364;9.772;2023-04-24T13:59:56;3.40;;;0.70;;
5157;SDS011;2598;52.364;9.772;2023-04-24T14:02:26;4.50;;;1.27;;
5157;SDS011;2598;52.364;9.772;2023-04-24T14:04:51;5.07;;;1.03;;
5157;SDS011;2598;52.364;9.772;2023-04-24T14:07:17;3.60;;;0.80;;
5157;SDS011;2598;52.364;9.772;2023-04-24T14:09:43;3.50;;;0.60;;
5157;SDS011;2598;52.364;9.772;2023-04-24T14:12:09;3.40;;;0.60;;
5157;SDS011;2598;52.364;9.772;2023-04-24T14:14:35;4.20;;;0.80;;
5157;SDS011;2598;52.364;9.772;2023-04-24T14:17:01;5.83;;;0.90;;
5157;SDS011;2598;52.364;9.772;2023-04-24T14:19:27;3.60;;;0.90;;
5157;SDS011;2598;52.364;9.772;2023-04-24T14:21:53;3.53;;;1.00;;
5157;SDS011;2598;52.364;9.772;2023-04-24T14:24:20;4.90;;;1.13;;
5157;SDS011;2598;52.364;9.772;2023-04-24T14:26:46;4.77;;;1.00;;
5157;SDS011;2598;52.364;9.772;2023-04-24T14:29:12;3.90;;;1.07;;
5157;SDS011;2598;52.364;9.772;2023-04-24T14:31:38;5.00;;;0.90;;
5157;SDS011;2598;52.364;9.772;2023-04-24T14:34:04;4.87;;;1.40;;
5157;SDS011;2598;52.364;9.772;2023-04-24T14:36:30;4.00;;;0.90;;
5157;SDS011;2598;52.364;9.772;2023-04-24T14:38:56;4.10;;;1.30;;
5157;SDS011;2598;52.364;9.772;2023-04-24T14:41:22;5.67;;;1.73;;
5157;SDS011;2598;52.364;9.772;2023-04-24T14:43:48;5.10;;;1.93;;
5157;SDS011;2598;52.364;9.772;2023-04-24T14:46:14;4.20;;;1.43;;
5157;SDS011;2598;52.364;9.772;2023-04-24T14:48:40;4.70;;;1.50;;
5157;SDS011;2598;52.364;9.772;2023-04-24T14:51:06;4.70;;;1.73;;
5157;SDS011;2598;52.364;9.772;2023-04-24T14:53:32;5.80;;;1.93;;
5157;SDS011;2598;52.364;9.772;2023-04-24T14:55:58;6.60;;;2.23;;
5157;SDS011;2598;52.364;9.772;2023-04-24T14:58:24;5.80;;;1.67;;
5157;SDS011;2598;52.364;9.772;2023-04-24T15:00:50;5.53;;;1.80;;
5157;SDS011;2598;52.364;9.772;2023-04-24T15:03:17;5.93;;;1.93;;
5157;SDS011;2598;52.364;9.772;2023-04-24T15:05:43;5.60;;;2.20;;
5157;SDS011;2598;52.364;9.772;2023-04-24T15:08:09;5.10;;;2.10;;
5157;SDS011;2598;52.364;9.772;2023-04-24T15:10:35;6.60;;;2.53;;
5157;SDS011;2598;52.364;9.772;2023-04-24T15:13:01;7.90;;;2.40;;
5157;SDS011;2598;52.364;9.772;2023-04-24T15:15:27;6.50;;;2.40;;
5157;SDS011;2598;52.364;9.772;2023-04-24T15:17:53;6.20;;;2.53;;
5157;SDS011;2598;52.364;9.772;2023-04-24T15:20:20;8.80;;;2.60;;